sensor_id;sensor_type;location;lat;lon;timestamp;P1;durP1;ratioP1;P2;durP2;ratioP2
6832;SDS011;3454;42.654;23.378;2023-08-21T00:01:29;6.45;;;5.47;;
6832;SDS011;3454;42.654;23.378;2023-08-21T00:03:55;7.03;;;5.53;;
6832;SDS011;3454;42.654;23.378;2023-08-21T00:06:20;8.82;;;5.70;;
6832;SDS011;3454;42.654;23.378;2023-08-21T00:08:45;5.88;;;5.20;;
6832;SDS011;3454;42.654;23.378;2023-08-21T00:11:11;9.35;;;5.68;;
6832;SDS011;3454;42.654;23.378;2023-08-21T00:13:37;7.18;;;5.95;;
6832;SDS011;3454;42.654;23.378;2023-08-21T00:16:02;8.50;;;5.40;;
6832;SDS011;3454;42.654;23.378;2023-08-21T00:18:28;8.00;;;5.97;;
6832;SDS011;3454;42.654;23.378;2023-08-21T00:20:53;5.85;;;5.25;;
6832;SDS011;3454;42.654;23.378;2023-08-21T00:23:19;9.35;;;5.78;;
6832;SDS011;3454;42.654;23.378;2023-08-21T00:25:46;10.25;;;6.10;;
6832;SDS011;3454;42.654;23.378;2023-08-21T00:28:12;8.25;;;5.35;;
6832;SDS011;3454;42.654;23.378;2023-08-21T00:30:37;6.43;;;5.45;;
6832;SDS011;3454;42.654;23.378;2023-08-21T00:33:03;6.97;;;5.10;;
6832;SDS011;3454;42.654;23.378;2023-08-21T00:35:29;8.98;;;5.93;;
6832;SDS011;3454;42.654;23.378;2023-08-21T00:37:55;10.13;;;6.13;;
6832;SDS011;3454;42.654;23.378;2023-08-21T00:40:20;8.57;;;5.38;;
6832;SDS011;3454;42.654;23.378;2023-08-21T00:42:46;7.82;;;5.63;;
6832;SDS011;3454;42.654;23.378;2023-08-21T00:45:11;8.88;;;5.40;;
6832;SDS011;3454;42.654;23.378;2023-08-21T00:47:36;6.95;;;5.38;;
6832;SDS011;3454;42.654;23.378;2023-08-21T00:50:03;7.07;;;5.45;;
6832;SDS011;3454;42.654;23.378;2023-08-21T00:52:32;8.25;;;5.75;;
6832;SDS011;3454;42.654;23.378;2023-08-21T00:55:01;7.88;;;6.13;;
6832;SDS011;3454;42.654;23.378;2023-08-21T00:57:28;7.35;;;6.35;;
6832;SDS011;3454;42.654;23.378;2023-08-21T00:59:54;10.90;;;6.30;;
6832;SDS011;3454;42.654;23.378;2023-08-21T01:02:19;7.55;;;5.63;;
6832;SDS011;3454;42.654;23.378;2023-08-21T01:04:45;6.72;;;5.70;;
6832;SDS011;3454;42.654;23.378;2023-08-21T01:07:11;10.30;;;6.07;;
6832;SDS011;3454;42.654;23.378;2023-08-21T01:09:46;8.18;;;5.47;;
6832;SDS011;3454;42.654;23.378;2023-08-21T01:12:30;11.50;;;5.53;;
6832;SDS011;3454;42.654;23.378;2023-08-21T01:15:02;8.23;;;5.72;;
6832;SDS011;3454;42.654;23.378;2023-08-21T01:17:31;10.32;;;5.70;;
6832;SDS011;3454;42.654;23.378;2023-08-21T01:20:00;6.90;;;5.68;;
6832;SDS011;3454;42.654;23.378;2023-08-21T01:22:29;10.18;;;6.32;;
6832;SDS011;3454;42.654;23.378;2023-08-21T01:25:02;9.35;;;6.32;;
6832;SDS011;3454;42.654;23.378;2023-08-21T01:27:27;7.78;;;6.13;;
6832;SDS011;3454;42.654;23.378;2023-08-21T01:29:53;8.07;;;6.32;;
6832;SDS011;3454;42.654;23.378;2023-08-21T01:34:55;7.85;;;5.97;;
6832;SDS011;3454;42.654;23.378;2023-08-21T01:37:21;7.28;;;5.70;;
6832;SDS011;3454;42.654;23.378;2023-08-21T01:39:48;10.00;;;5.95;;
6832;SDS011;3454;42.654;23.378;2023-08-21T01:42:14;10.43;;;5.60;;
6832;SDS011;3454;42.654;23.378;2023-08-21T01:44:39;5.75;;;4.90;;
6832;SDS011;3454;42.654;23.378;2023-08-21T01:47:05;6.93;;;5.30;;
6832;SDS011;3454;42.654;23.378;2023-08-21T01:49:30;7.88;;;5.80;;
6832;SDS011;3454;42.654;23.378;2023-08-21T01:51:56;6.15;;;5.00;;
6832;SDS011;3454;42.654;23.378;2023-08-21T01:54:21;5.90;;;5.30;;
6832;SDS011;3454;42.654;23.378;2023-08-21T01:56:47;9.07;;;5.88;;
6832;SDS011;3454;42.654;23.378;2023-08-21T01:59:12;9.35;;;5.75;;
6832;SDS011;3454;42.654;23.378;2023-08-21T02:01:37;7.93;;;5.40;;
6832;SDS011;3454;42.654;23.378;2023-08-21T02:04:04;5.80;;;5.30;;
6832;SDS011;3454;42.654;23.378;2023-08-21T02:06:29;7.90;;;5.68;;
6832;SDS011;3454;42.654;23.378;2023-08-21T02:08:55;9.90;;;5.55;;
6832;SDS011;3454;42.654;23.378;2023-08-21T02:11:20;9.38;;;5.65;;
6832;SDS011;3454;42.654;23.378;2023-08-21T02:13:45;6.22;;;5.47;;
6832;SDS011;3454;42.654;23.378;2023-08-21T02:16:11;7.93;;;5.93;;
6832;SDS011;3454;42.654;23.378;2023-08-21T02:18:36;6.55;;;5.40;;
6832;SDS011;3454;42.654;23.378;2023-08-21T02:21:02;6.78;;;5.90;;
6832;SDS011;3454;42.654;23.378;2023-08-21T02:23:27;5.85;;;5.13;;
6832;SDS011;3454;42.654;23.378;2023-08-21T02:25:54;9.20;;;6.53;;
6832;SDS011;3454;42.654;23.378;2023-08-21T02:28:19;7.47;;;5.68;;
6832;SDS011;3454;42.654;23.378;2023-08-21T02:30:45;6.30;;;5.72;;
6832;SDS011;3454;42.654;23.378;2023-08-21T02:33:11;8.98;;;5.47;;
6832;SDS011;3454;42.654;23.378;2023-08-21T02:35:36;7.80;;;6.30;;
6832;SDS011;3454;42.654;23.378;2023-08-21T02:38:02;5.95;;;5.45;;
6832;SDS011;3454;42.654;23.378;2023-08-21T02:40:28;7.07;;;5.60;;
6832;SDS011;3454;42.654;23.378;2023-08-21T02:42:53;10.25;;;5.68;;
6832;SDS011;3454;42.654;23.378;2023-08-21T02:45:19;8.10;;;6.05;;
6832;SDS011;3454;42.654;23.378;2023-08-21T02:47:44;7.95;;;5.75;;
6832;SDS011;3454;42.654;23.378;2023-08-21T02:50:10;11.35;;;6.00;;
6832;SDS011;3454;42.654;23.378;2023-08-21T02:52:36;8.52;;;5.70;;
6832;SDS011;3454;42.654;23.378;2023-08-21T02:55:02;7.55;;;5.43;;
6832;SDS011;3454;42.654;23.378;2023-08-21T02:57:28;7.07;;;5.20;;
6832;SDS011;3454;42.654;23.378;2023-08-21T02:59:54;5.65;;;5.07;;
6832;SDS011;3454;42.654;23.378;2023-08-21T03:02:20;5.82;;;5.15;;
6832;SDS011;3454;42.654;23.378;2023-08-21T03:04:46;9.48;;;5.53;;
6832;SDS011;3454;42.654;23.378;2023-08-21T03:07:12;5.53;;;5.00;;
6832;SDS011;3454;42.654;23.378;2023-08-21T03:09:38;7.20;;;5.45;;
6832;SDS011;3454;42.654;23.378;2023-08-21T03:12:05;7.57;;;5.30;;
6832;SDS011;3454;42.654;23.378;2023-08-21T03:14:30;8.93;;;5.40;;
6832;SDS011;3454;42.654;23.378;2023-08-21T03:16:56;7.10;;;4.75;;
6832;SDS011;3454;42.654;23.378;2023-08-21T03:19:21;5.70;;;5.00;;
6832;SDS011;3454;42.654;23.378;2023-08-21T03:21:47;5.97;;;5.10;;
6832;SDS011;3454;42.654;23.378;2023-08-21T03:24:12;5.55;;;5.05;;
6832;SDS011;3454;42.654;23.378;2023-08-21T03:26:38;10.93;;;5.18;;
6832;SDS011;3454;42.654;23.378;2023-08-21T03:29:03;5.40;;;4.90;;
6832;SDS011;3454;42.654;23.378;2023-08-21T03:31:29;8.35;;;5.15;;
6832;SDS011;3454;42.654;23.378;2023-08-21T03:33:55;5.18;;;4.68;;
6832;SDS011;3454;42.654;23.378;2023-08-21T03:36:22;9.73;;;5.35;;
6832;SDS011;3454;42.654;23.378;2023-08-21T03:38:56;6.80;;;5.00;;
6832;SDS011;3454;42.654;23.378;2023-08-21T03:41:25;5.95;;;5.35;;
6832;SDS011;3454;42.654;23.378;2023-08-21T03:43:51;5.78;;;5.28;;
6832;SDS011;3454;42.654;23.378;2023-08-21T03:46:16;6.05;;;5.45;;
6832;SDS011;3454;42.654;23.378;2023-08-21T03:48:42;7.72;;;5.63;;
6832;SDS011;3454;42.654;23.378;2023-08-21T03:51:08;6.68;;;5.32;;
6832;SDS011;3454;42.654;23.378;2023-08-21T03:53:34;7.55;;;5.57;;
6832;SDS011;3454;42.654;23.378;2023-08-21T03:55:59;10.48;;;6.20;;
6832;SDS011;3454;42.654;23.378;2023-08-21T03:58:25;8.63;;;5.65;;
6832;SDS011;3454;42.654;23.378;2023-08-21T04:00:52;6.35;;;5.50;;
6832;SDS011;3454;42.654;23.378;2023-08-21T04:03:17;7.88;;;5.63;;
6832;SDS011;3454;42.654;23.378;2023-08-21T04:05:43;7.68;;;6.22;;
6832;SDS011;3454;42.654;23.378;2023-08-21T04:08:09;10.95;;;6.05;;
6832;SDS011;3454;42.654;23.378;2023-08-21T04:10:34;7.72;;;6.15;;
6832;SDS011;3454;42.654;23.378;2023-08-21T04:13:00;10.73;;;5.85;;
6832;SDS011;3454;42.654;23.378;2023-08-21T04:15:25;11.07;;;5.82;;
6832;SDS011;3454;42.654;23.378;2023-08-21T04:17:51;12.45;;;6.00;;
6832;SDS011;3454;42.654;23.378;2023-08-21T04:20:18;7.90;;;6.53;;
6832;SDS011;3454;42.654;23.378;2023-08-21T04:22:46;6.68;;;5.70;;
6832;SDS011;3454;42.654;23.378;2023-08-21T04:25:12;9.10;;;6.20;;
6832;SDS011;3454;42.654;23.378;2023-08-21T04:27:37;10.38;;;6.57;;
6832;SDS011;3454;42.654;23.378;2023-08-21T04:30:03;8.18;;;7.10;;
6832;SDS011;3454;42.654;23.378;2023-08-21T04:32:30;11.38;;;7.28;;
6832;SDS011;3454;42.654;23.378;2023-08-21T04:34:55;7.10;;;6.22;;
6832;SDS011;3454;42.654;23.378;2023-08-21T04:37:22;10.98;;;6.63;;
6832;SDS011;3454;42.654;23.378;2023-08-21T04:39:54;9.50;;;6.50;;
6832;SDS011;3454;42.654;23.378;2023-08-21T04:42:20;10.38;;;6.78;;
6832;SDS011;3454;42.654;23.378;2023-08-21T04:44:46;10.43;;;6.80;;
6832;SDS011;3454;42.654;23.378;2023-08-21T04:47:21;14.25;;;7.18;;
6832;SDS011;3454;42.654;23.378;2023-08-21T04:49:53;10.00;;;7.18;;
6832;SDS011;3454;42.654;23.378;2023-08-21T04:52:21;10.07;;;7.63;;
6832;SDS011;3454;42.654;23.378;2023-08-21T04:54:47;9.52;;;7.07;;
6832;SDS011;3454;42.654;23.378;2023-08-21T04:57:13;11.60;;;8.65;;
6832;SDS011;3454;42.654;23.378;2023-08-21T04:59:39;13.85;;;9.05;;
6832;SDS011;3454;42.654;23.378;2023-08-21T05:02:05;13.20;;;11.80;;
6832;SDS011;3454;42.654;23.378;2023-08-21T05:04:31;11.63;;;8.20;;
6832;SDS011;3454;42.654;23.378;2023-08-21T05:06:57;9.30;;;7.85;;
6832;SDS011;3454;42.654;23.378;2023-08-21T05:09:22;10.88;;;8.07;;
6832;SDS011;3454;42.654;23.378;2023-08-21T05:11:48;18.05;;;16.38;;
6832;SDS011;3454;42.654;23.378;2023-08-21T05:14:14;11.02;;;9.63;;
6832;SDS011;3454;42.654;23.378;2023-08-21T05:16:39;10.88;;;7.75;;
6832;SDS011;3454;42.654;23.378;2023-08-21T05:19:12;11.18;;;7.90;;
6832;SDS011;3454;42.654;23.378;2023-08-21T05:21:45;11.13;;;7.10;;
6832;SDS011;3454;42.654;23.378;2023-08-21T05:24:10;10.15;;;7.82;;
6832;SDS011;3454;42.654;23.378;2023-08-21T05:26:37;15.05;;;8.10;;
6832;SDS011;3454;42.654;23.378;2023-08-21T05:29:03;11.52;;;8.32;;
6832;SDS011;3454;42.654;23.378;2023-08-21T05:31:29;22.80;;;11.50;;
6832;SDS011;3454;42.654;23.378;2023-08-21T05:33:55;15.32;;;9.50;;
6832;SDS011;3454;42.654;23.378;2023-08-21T05:36:21;12.93;;;8.77;;
6832;SDS011;3454;42.654;23.378;2023-08-21T05:38:46;12.02;;;8.77;;
6832;SDS011;3454;42.654;23.378;2023-08-21T05:41:13;10.68;;;8.38;;
6832;SDS011;3454;42.654;23.378;2023-08-21T05:43:39;8.80;;;7.50;;
6832;SDS011;3454;42.654;23.378;2023-08-21T05:46:07;9.90;;;6.80;;
6832;SDS011;3454;42.654;23.378;2023-08-21T05:48:32;10.93;;;7.65;;
6832;SDS011;3454;42.654;23.378;2023-08-21T05:50:59;14.13;;;7.80;;
6832;SDS011;3454;42.654;23.378;2023-08-21T05:53:25;11.85;;;6.97;;
6832;SDS011;3454;42.654;23.378;2023-08-21T05:55:50;9.73;;;7.28;;
6832;SDS011;3454;42.654;23.378;2023-08-21T05:58:16;11.95;;;8.10;;
6832;SDS011;3454;42.654;23.378;2023-08-21T06:00:41;9.32;;;7.75;;
6832;SDS011;3454;42.654;23.378;2023-08-21T06:03:07;9.70;;;7.20;;
6832;SDS011;3454;42.654;23.378;2023-08-21T06:05:34;9.15;;;6.97;;
6832;SDS011;3454;42.654;23.378;2023-08-21T06:07:59;9.10;;;7.30;;
6832;SDS011;3454;42.654;23.378;2023-08-21T06:10:25;15.00;;;7.80;;
6832;SDS011;3454;42.654;23.378;2023-08-21T06:12:51;13.10;;;7.43;;
6832;SDS011;3454;42.654;23.378;2023-08-21T06:15:17;12.77;;;8.55;;
6832;SDS011;3454;42.654;23.378;2023-08-21T06:17:43;10.82;;;7.25;;
6832;SDS011;3454;42.654;23.378;2023-08-21T06:20:08;15.25;;;7.50;;
6832;SDS011;3454;42.654;23.378;2023-08-21T06:22:34;12.15;;;6.90;;
6832;SDS011;3454;42.654;23.378;2023-08-21T06:25:01;9.50;;;6.57;;
6832;SDS011;3454;42.654;23.378;2023-08-21T06:27:26;9.43;;;7.65;;
6832;SDS011;3454;42.654;23.378;2023-08-21T06:29:52;9.80;;;6.88;;
6832;SDS011;3454;42.654;23.378;2023-08-21T06:32:17;12.48;;;7.95;;
6832;SDS011;3454;42.654;23.378;2023-08-21T06:34:43;12.63;;;7.50;;
6832;SDS011;3454;42.654;23.378;2023-08-21T06:37:08;12.80;;;6.78;;
6832;SDS011;3454;42.654;23.378;2023-08-21T06:39:34;12.05;;;6.60;;
6832;SDS011;3454;42.654;23.378;2023-08-21T06:42:00;25.40;;;17.30;;
6832;SDS011;3454;42.654;23.378;2023-08-21T06:44:26;13.88;;;7.60;;
6832;SDS011;3454;42.654;23.378;2023-08-21T06:46:51;10.95;;;7.85;;
6832;SDS011;3454;42.654;23.378;2023-08-21T06:49:17;9.88;;;7.53;;
6832;SDS011;3454;42.654;23.378;2023-08-21T06:51:42;11.20;;;7.57;;
6832;SDS011;3454;42.654;23.378;2023-08-21T06:54:08;9.23;;;7.30;;
6832;SDS011;3454;42.654;23.378;2023-08-21T06:56:34;9.48;;;6.97;;
6832;SDS011;3454;42.654;23.378;2023-08-21T06:58:59;12.80;;;7.57;;
6832;SDS011;3454;42.654;23.378;2023-08-21T07:01:25;12.57;;;8.30;;
6832;SDS011;3454;42.654;23.378;2023-08-21T07:03:50;10.55;;;7.57;;
6832;SDS011;3454;42.654;23.378;2023-08-21T07:06:16;12.10;;;6.93;;
6832;SDS011;3454;42.654;23.378;2023-08-21T07:08:42;14.15;;;7.50;;
6832;SDS011;3454;42.654;23.378;2023-08-21T07:11:07;10.43;;;6.90;;
6832;SDS011;3454;42.654;23.378;2023-08-21T07:13:35;10.45;;;6.82;;
6832;SDS011;3454;42.654;23.378;2023-08-21T07:16:01;11.85;;;7.20;;
6832;SDS011;3454;42.654;23.378;2023-08-21T07:18:29;13.75;;;7.30;;
6832;SDS011;3454;42.654;23.378;2023-08-21T07:20:57;10.32;;;6.63;;
6832;SDS011;3454;42.654;23.378;2023-08-21T07:23:22;8.65;;;6.65;;
6832;SDS011;3454;42.654;23.378;2023-08-21T07:25:48;15.00;;;8.07;;
6832;SDS011;3454;42.654;23.378;2023-08-21T07:28:14;10.07;;;7.07;;
6832;SDS011;3454;42.654;23.378;2023-08-21T07:30:39;9.65;;;7.10;;
6832;SDS011;3454;42.654;23.378;2023-08-21T07:33:05;12.50;;;7.55;;
6832;SDS011;3454;42.654;23.378;2023-08-21T07:35:31;10.00;;;6.15;;
6832;SDS011;3454;42.654;23.378;2023-08-21T07:37:58;10.73;;;7.25;;
6832;SDS011;3454;42.654;23.378;2023-08-21T07:40:23;11.73;;;6.50;;
6832;SDS011;3454;42.654;23.378;2023-08-21T07:42:49;15.00;;;7.38;;
6832;SDS011;3454;42.654;23.378;2023-08-21T07:45:16;13.63;;;7.05;;
6832;SDS011;3454;42.654;23.378;2023-08-21T07:47:41;8.85;;;6.05;;
6832;SDS011;3454;42.654;23.378;2023-08-21T07:50:07;11.38;;;5.82;;
6832;SDS011;3454;42.654;23.378;2023-08-21T07:52:36;7.65;;;5.95;;
6832;SDS011;3454;42.654;23.378;2023-08-21T07:55:02;7.43;;;6.07;;
6832;SDS011;3454;42.654;23.378;2023-08-21T07:57:28;13.00;;;6.43;;
6832;SDS011;3454;42.654;23.378;2023-08-21T07:59:54;13.60;;;6.38;;
6832;SDS011;3454;42.654;23.378;2023-08-21T08:02:20;7.75;;;6.25;;
6832;SDS011;3454;42.654;23.378;2023-08-21T08:04:46;7.30;;;6.30;;
6832;SDS011;3454;42.654;23.378;2023-08-21T08:07:12;7.13;;;5.95;;
6832;SDS011;3454;42.654;23.378;2023-08-21T08:09:38;13.57;;;6.13;;
6832;SDS011;3454;42.654;23.378;2023-08-21T08:12:04;8.98;;;5.57;;
6832;SDS011;3454;42.654;23.378;2023-08-21T08:14:30;8.13;;;5.53;;
6832;SDS011;3454;42.654;23.378;2023-08-21T08:16:56;7.22;;;4.95;;
6832;SDS011;3454;42.654;23.378;2023-08-21T08:19:21;13.10;;;5.93;;
6832;SDS011;3454;42.654;23.378;2023-08-21T08:21:47;7.05;;;5.18;;
6832;SDS011;3454;42.654;23.378;2023-08-21T08:24:12;5.88;;;5.25;;
6832;SDS011;3454;42.654;23.378;2023-08-21T08:26:38;8.35;;;5.70;;
6832;SDS011;3454;42.654;23.378;2023-08-21T08:29:03;6.22;;;5.63;;
6832;SDS011;3454;42.654;23.378;2023-08-21T08:31:30;9.95;;;5.07;;
6832;SDS011;3454;42.654;23.378;2023-08-21T08:33:56;9.60;;;5.05;;
6832;SDS011;3454;42.654;23.378;2023-08-21T08:36:22;5.50;;;4.97;;
6832;SDS011;3454;42.654;23.378;2023-08-21T08:38:47;11.90;;;5.32;;
6832;SDS011;3454;42.654;23.378;2023-08-21T08:41:33;9.02;;;5.57;;
6832;SDS011;3454;42.654;23.378;2023-08-21T08:44:15;10.32;;;5.32;;
6832;SDS011;3454;42.654;23.378;2023-08-21T08:46:42;7.60;;;5.55;;
6832;SDS011;3454;42.654;23.378;2023-08-21T08:49:08;10.13;;;7.57;;
6832;SDS011;3454;42.654;23.378;2023-08-21T08:51:33;6.95;;;5.28;;
6832;SDS011;3454;42.654;23.378;2023-08-21T08:54:02;7.35;;;5.32;;
6832;SDS011;3454;42.654;23.378;2023-08-21T08:56:29;5.97;;;5.32;;
6832;SDS011;3454;42.654;23.378;2023-08-21T08:58:54;10.98;;;5.15;;
6832;SDS011;3454;42.654;23.378;2023-08-21T09:01:19;8.18;;;5.80;;
6832;SDS011;3454;42.654;23.378;2023-08-21T09:03:45;6.03;;;5.30;;
6832;SDS011;3454;42.654;23.378;2023-08-21T09:06:11;7.97;;;5.50;;
6832;SDS011;3454;42.654;23.378;2023-08-21T09:08:36;15.63;;;12.73;;
6832;SDS011;3454;42.654;23.378;2023-08-21T09:11:02;8.05;;;6.13;;
6832;SDS011;3454;42.654;23.378;2023-08-21T09:13:30;6.50;;;4.90;;
6832;SDS011;3454;42.654;23.378;2023-08-21T09:15:56;12.35;;;7.03;;
6832;SDS011;3454;42.654;23.378;2023-08-21T09:18:23;6.88;;;5.60;;
6832;SDS011;3454;42.654;23.378;2023-08-21T09:20:49;7.40;;;5.10;;
6832;SDS011;3454;42.654;23.378;2023-08-21T09:23:15;13.68;;;5.47;;
6832;SDS011;3454;42.654;23.378;2023-08-21T09:25:43;6.78;;;4.63;;
6832;SDS011;3454;42.654;23.378;2023-08-21T09:28:11;7.85;;;5.22;;
6832;SDS011;3454;42.654;23.378;2023-08-21T09:30:44;6.00;;;4.28;;
6832;SDS011;3454;42.654;23.378;2023-08-21T09:33:18;5.50;;;4.85;;
6832;SDS011;3454;42.654;23.378;2023-08-21T09:35:48;8.60;;;4.57;;
6832;SDS011;3454;42.654;23.378;2023-08-21T09:38:14;5.47;;;4.82;;
6832;SDS011;3454;42.654;23.378;2023-08-21T09:40:43;6.78;;;4.93;;
6832;SDS011;3454;42.654;23.378;2023-08-21T09:43:16;7.88;;;5.03;;
6832;SDS011;3454;42.654;23.378;2023-08-21T09:45:42;8.52;;;5.40;;
6832;SDS011;3454;42.654;23.378;2023-08-21T09:48:11;10.07;;;6.68;;
6832;SDS011;3454;42.654;23.378;2023-08-21T09:50:38;7.90;;;5.28;;
6832;SDS011;3454;42.654;23.378;2023-08-21T09:53:05;11.63;;;6.07;;
6832;SDS011;3454;42.654;23.378;2023-08-21T09:55:32;10.73;;;5.75;;
6832;SDS011;3454;42.654;23.378;2023-08-21T09:58:00;12.63;;;6.00;;
6832;SDS011;3454;42.654;23.378;2023-08-21T10:00:30;5.60;;;4.93;;
6832;SDS011;3454;42.654;23.378;2023-08-21T10:03:01;8.10;;;5.75;;
6832;SDS011;3454;42.654;23.378;2023-08-21T10:05:29;7.63;;;4.80;;
6832;SDS011;3454;42.654;23.378;2023-08-21T10:08:00;9.05;;;4.72;;
6832;SDS011;3454;42.654;23.378;2023-08-21T10:10:31;5.57;;;5.00;;
6832;SDS011;3454;42.654;23.378;2023-08-21T10:12:59;13.38;;;5.90;;
6832;SDS011;3454;42.654;23.378;2023-08-21T10:15:28;11.02;;;4.95;;
6832;SDS011;3454;42.654;23.378;2023-08-21T10:17:54;7.00;;;4.72;;
6832;SDS011;3454;42.654;23.378;2023-08-21T10:20:22;7.03;;;4.82;;
6832;SDS011;3454;42.654;23.378;2023-08-21T10:22:50;8.23;;;5.03;;
6832;SDS011;3454;42.654;23.378;2023-08-21T10:25:24;8.73;;;4.13;;
6832;SDS011;3454;42.654;23.378;2023-08-21T10:27:56;5.72;;;4.57;;
6832;SDS011;3454;42.654;23.378;2023-08-21T10:30:24;7.32;;;5.03;;
6832;SDS011;3454;42.654;23.378;2023-08-21T10:32:54;9.23;;;4.65;;
6832;SDS011;3454;42.654;23.378;2023-08-21T10:35:22;10.18;;;5.82;;
6832;SDS011;3454;42.654;23.378;2023-08-21T10:41:03;9.77;;;4.95;;
6832;SDS011;3454;42.654;23.378;2023-08-21T10:43:39;6.65;;;4.88;;
6832;SDS011;3454;42.654;23.378;2023-08-21T10:46:06;8.05;;;5.10;;
6832;SDS011;3454;42.654;23.378;2023-08-21T10:48:36;8.00;;;4.43;;
6832;SDS011;3454;42.654;23.378;2023-08-21T10:51:03;5.18;;;4.25;;
6832;SDS011;3454;42.654;23.378;2023-08-21T10:53:34;4.82;;;4.32;;
6832;SDS011;3454;42.654;23.378;2023-08-21T10:56:02;6.72;;;4.60;;
6832;SDS011;3454;42.654;23.378;2023-08-21T10:58:51;5.85;;;4.90;;
6832;SDS011;3454;42.654;23.378;2023-08-21T11:01:21;10.45;;;6.40;;
6832;SDS011;3454;42.654;23.378;2023-08-21T11:04:23;9.52;;;5.50;;
6832;SDS011;3454;42.654;23.378;2023-08-21T11:06:50;6.07;;;4.75;;
6832;SDS011;3454;42.654;23.378;2023-08-21T11:09:16;5.68;;;4.47;;
6832;SDS011;3454;42.654;23.378;2023-08-21T11:11:44;7.45;;;5.13;;
6832;SDS011;3454;42.654;23.378;2023-08-21T11:14:10;7.90;;;4.95;;
6832;SDS011;3454;42.654;23.378;2023-08-21T11:16:35;6.47;;;4.47;;
6832;SDS011;3454;42.654;23.378;2023-08-21T11:19:04;11.60;;;4.63;;
6832;SDS011;3454;42.654;23.378;2023-08-21T11:21:33;5.20;;;4.65;;
6832;SDS011;3454;42.654;23.378;2023-08-21T11:23:59;9.85;;;5.57;;
6832;SDS011;3454;42.654;23.378;2023-08-21T11:26:25;7.47;;;5.00;;
6832;SDS011;3454;42.654;23.378;2023-08-21T11:28:50;6.00;;;4.68;;
6832;SDS011;3454;42.654;23.378;2023-08-21T11:31:16;8.15;;;4.55;;
6832;SDS011;3454;42.654;23.378;2023-08-21T11:33:48;5.57;;;5.05;;
6832;SDS011;3454;42.654;23.378;2023-08-21T11:36:17;7.70;;;6.10;;
6832;SDS011;3454;42.654;23.378;2023-08-21T11:38:43;11.13;;;4.97;;
6832;SDS011;3454;42.654;23.378;2023-08-21T11:41:24;7.47;;;5.70;;
6832;SDS011;3454;42.654;23.378;2023-08-21T11:43:49;6.53;;;5.90;;
6832;SDS011;3454;42.654;23.378;2023-08-21T11:46:15;7.05;;;4.40;;
6832;SDS011;3454;42.654;23.378;2023-08-21T11:48:44;6.07;;;4.25;;
6832;SDS011;3454;42.654;23.378;2023-08-21T11:51:13;7.63;;;4.20;;
6832;SDS011;3454;42.654;23.378;2023-08-21T11:53:39;6.30;;;4.82;;
6832;SDS011;3454;42.654;23.378;2023-08-21T11:56:11;5.85;;;4.95;;
6832;SDS011;3454;42.654;23.378;2023-08-21T11:58:38;8.07;;;4.70;;
6832;SDS011;3454;42.654;23.378;2023-08-21T12:01:10;4.20;;;3.80;;
6832;SDS011;3454;42.654;23.378;2023-08-21T12:03:36;4.82;;;4.40;;
6832;SDS011;3454;42.654;23.378;2023-08-21T12:06:05;11.13;;;5.78;;
6832;SDS011;3454;42.654;23.378;2023-08-21T12:08:31;8.70;;;5.03;;
6832;SDS011;3454;42.654;23.378;2023-08-21T12:10:58;6.80;;;4.20;;
6832;SDS011;3454;42.654;23.378;2023-08-21T12:13:23;5.88;;;3.83;;
6832;SDS011;3454;42.654;23.378;2023-08-21T12:15:49;7.47;;;4.75;;
6832;SDS011;3454;42.654;23.378;2023-08-21T12:18:15;7.35;;;3.70;;
6832;SDS011;3454;42.654;23.378;2023-08-21T12:20:40;8.40;;;5.75;;
6832;SDS011;3454;42.654;23.378;2023-08-21T12:23:06;9.52;;;5.00;;
6832;SDS011;3454;42.654;23.378;2023-08-21T12:25:32;6.10;;;4.85;;
6832;SDS011;3454;42.654;23.378;2023-08-21T12:27:58;6.70;;;5.05;;
6832;SDS011;3454;42.654;23.378;2023-08-21T12:30:25;5.53;;;4.93;;
6832;SDS011;3454;42.654;23.378;2023-08-21T12:32:50;10.80;;;4.80;;
6832;SDS011;3454;42.654;23.378;2023-08-21T12:35:16;5.95;;;4.90;;
6832;SDS011;3454;42.654;23.378;2023-08-21T12:37:42;9.30;;;5.63;;
6832;SDS011;3454;42.654;23.378;2023-08-21T12:40:08;8.32;;;4.60;;
6832;SDS011;3454;42.654;23.378;2023-08-21T12:42:34;6.43;;;4.85;;
6832;SDS011;3454;42.654;23.378;2023-08-21T12:45:00;7.43;;;4.68;;
6832;SDS011;3454;42.654;23.378;2023-08-21T12:47:25;7.00;;;5.22;;
6832;SDS011;3454;42.654;23.378;2023-08-21T12:49:51;6.03;;;4.60;;
6832;SDS011;3454;42.654;23.378;2023-08-21T12:52:16;7.32;;;4.18;;
6832;SDS011;3454;42.654;23.378;2023-08-21T12:54:42;8.05;;;5.05;;
6832;SDS011;3454;42.654;23.378;2023-08-21T12:57:11;6.82;;;4.05;;
6832;SDS011;3454;42.654;23.378;2023-08-21T12:59:37;5.25;;;4.57;;
6832;SDS011;3454;42.654;23.378;2023-08-21T13:02:02;4.60;;;4.18;;
6832;SDS011;3454;42.654;23.378;2023-08-21T13:04:29;4.65;;;4.25;;
6832;SDS011;3454;42.654;23.378;2023-08-21T13:06:54;6.57;;;4.28;;
6832;SDS011;3454;42.654;23.378;2023-08-21T13:09:20;7.40;;;5.00;;
6832;SDS011;3454;42.654;23.378;2023-08-21T13:11:46;7.75;;;4.57;;
6832;SDS011;3454;42.654;23.378;2023-08-21T13:14:11;7.18;;;5.38;;
6832;SDS011;3454;42.654;23.378;2023-08-21T13:16:37;5.43;;;4.90;;
6832;SDS011;3454;42.654;23.378;2023-08-21T13:19:03;7.28;;;5.35;;
6832;SDS011;3454;42.654;23.378;2023-08-21T13:21:28;7.82;;;5.10;;
6832;SDS011;3454;42.654;23.378;2023-08-21T13:23:54;9.10;;;5.25;;
6832;SDS011;3454;42.654;23.378;2023-08-21T13:26:19;5.18;;;4.78;;
6832;SDS011;3454;42.654;23.378;2023-08-21T13:28:45;9.05;;;5.28;;
6832;SDS011;3454;42.654;23.378;2023-08-21T13:31:11;8.18;;;5.22;;
6832;SDS011;3454;42.654;23.378;2023-08-21T13:33:46;7.05;;;5.13;;
6832;SDS011;3454;42.654;23.378;2023-08-21T13:36:15;7.57;;;4.30;;
6832;SDS011;3454;42.654;23.378;2023-08-21T13:38:43;5.25;;;4.63;;
6832;SDS011;3454;42.654;23.378;2023-08-21T13:41:10;6.35;;;3.97;;
6832;SDS011;3454;42.654;23.378;2023-08-21T13:43:36;13.38;;;4.72;;
6832;SDS011;3454;42.654;23.378;2023-08-21T13:46:02;7.75;;;4.95;;
6832;SDS011;3454;42.654;23.378;2023-08-21T13:48:31;6.90;;;4.68;;
6832;SDS011;3454;42.654;23.378;2023-08-21T13:50:57;8.52;;;4.70;;
6832;SDS011;3454;42.654;23.378;2023-08-21T13:53:23;7.55;;;5.35;;
6832;SDS011;3454;42.654;23.378;2023-08-21T13:55:52;11.80;;;5.55;;
6832;SDS011;3454;42.654;23.378;2023-08-21T13:58:17;8.40;;;4.90;;
6832;SDS011;3454;42.654;23.378;2023-08-21T14:00:43;8.68;;;5.07;;
6832;SDS011;3454;42.654;23.378;2023-08-21T14:03:09;9.18;;;5.13;;
6832;SDS011;3454;42.654;23.378;2023-08-21T14:05:35;5.78;;;4.90;;
6832;SDS011;3454;42.654;23.378;2023-08-21T14:08:01;10.93;;;4.65;;
6832;SDS011;3454;42.654;23.378;2023-08-21T14:10:27;5.57;;;4.88;;
6832;SDS011;3454;42.654;23.378;2023-08-21T14:12:52;5.45;;;4.45;;
6832;SDS011;3454;42.654;23.378;2023-08-21T14:15:18;7.03;;;4.82;;
6832;SDS011;3454;42.654;23.378;2023-08-21T14:17:44;7.05;;;5.03;;
6832;SDS011;3454;42.654;23.378;2023-08-21T14:20:10;6.30;;;4.10;;
6832;SDS011;3454;42.654;23.378;2023-08-21T14:22:36;5.15;;;4.15;;
6832;SDS011;3454;42.654;23.378;2023-08-21T14:25:04;5.53;;;4.22;;
6832;SDS011;3454;42.654;23.378;2023-08-21T14:27:31;6.00;;;4.70;;
6832;SDS011;3454;42.654;23.378;2023-08-21T14:29:58;8.23;;;4.65;;
6832;SDS011;3454;42.654;23.378;2023-08-21T14:32:24;4.80;;;4.30;;
6832;SDS011;3454;42.654;23.378;2023-08-21T14:34:50;5.65;;;4.97;;
6832;SDS011;3454;42.654;23.378;2023-08-21T14:37:18;8.30;;;5.05;;
6832;SDS011;3454;42.654;23.378;2023-08-21T14:39:46;8.43;;;4.57;;
6832;SDS011;3454;42.654;23.378;2023-08-21T14:42:12;9.88;;;5.30;;
6832;SDS011;3454;42.654;23.378;2023-08-21T14:44:38;7.18;;;5.15;;
6832;SDS011;3454;42.654;23.378;2023-08-21T14:47:05;7.43;;;5.10;;
6832;SDS011;3454;42.654;23.378;2023-08-21T14:49:31;8.02;;;4.88;;
6832;SDS011;3454;42.654;23.378;2023-08-21T14:51:57;9.95;;;5.80;;
6832;SDS011;3454;42.654;23.378;2023-08-21T14:54:23;8.43;;;5.22;;
6832;SDS011;3454;42.654;23.378;2023-08-21T14:56:50;6.70;;;4.63;;
6832;SDS011;3454;42.654;23.378;2023-08-21T14:59:16;5.65;;;4.90;;
6832;SDS011;3454;42.654;23.378;2023-08-21T15:01:42;8.43;;;4.53;;